Terminal Aerodrome Forecast
Issued by NWS

Home | Current Version | Previous Version | Text Only | Print | Product List | Glossary On
Versions: 1 2 3 4 5 6 7 8 9 10 11 12 13 14 15 16 17
000
FTUS43 KJKL 272340
TAFSME
TAF
KSME 272340Z 2800/2824 17005KT P6SM FEW250
     FM281000 16004KT P6SM VCSH BKN060 BKN080
     FM281400 18009G15KT P6SM -SHRA OVC030
     FM281900 20012KT P6SM OVC015=

USA.gov is the U.S. government's official web portal to all federal, state and local government web resources and services.